Погода Семигостичина неделю

Брестская область, Белоруссия

20 - 26 июля
  • 20июля
    Сегодня
    +12°
    +25°
    Практически безоблачно
    ВремяПогодаТемператураВлажностьДавлениеВетер, м/сВероятность осадков
    00:00Ясно и безоблачно+17°C77 %751 мм1.8 м/с2 %
    03:00Ясно и безоблачно+15°C87 %751 мм1.7 м/с2 %
    06:00Ясно и безоблачно+14°C89 %750 мм1.9 м/с2 %
    09:00Ясно и безоблачно+20°C68 %750 мм1.8 м/с2 %
    12:00Облачно с прояснениями+24°C52 %750 мм3.1 м/с2 %
    15:00Практически безоблачно+25°C43 %749 мм3.4 м/с2 %
    18:00Ясно и безоблачно+25°C43 %748 мм2.8 м/с2 %
    21:00Небольшая облачность+21°C66 %748 мм1.7 м/с2 %
  • 21июля
    Воскресенье
    +14°
    +27°
    Ясно и безоблачно
    ВремяПогодаТемператураВлажностьДавлениеВетер, м/сВероятность осадков
    00:00Ясно и безоблачно+18°C69 %748 мм1.7 м/с2 %
    03:00Практически безоблачно+15°C80 %748 мм1.9 м/с2 %
    06:00Ясно и безоблачно+13°C86 %747 мм0.6 м/с2 %
    09:00Практически безоблачно+20°C64 %748 мм0.5 м/с2 %
    12:00Ясно и безоблачно+24°C47 %748 мм0.3 м/с3 %
    15:00Ясно и безоблачно+26°C41 %747 мм0.8 м/с18 %
    18:00Ясно и безоблачно+26°C41 %746 мм0.9 м/с8 %
    21:00Ясно и безоблачно+23°C61 %746 мм1.7 м/с2 %
  • 22июля
    Понедельник
    +15°
    +28°
    Ясно и безоблачно
    ВремяПогодаТемператураВлажностьДавлениеВетер, м/сВероятность осадков
    00:00Практически безоблачно+19°C71 %746 мм1.6 м/с1 %
    03:00Ясно и безоблачно+16°C81 %746 мм2.1 м/с3 %
    06:00Ясно и безоблачно+15°C86 %746 мм1.3 м/с2 %
    09:00Практически безоблачно+22°C61 %747 мм1.0 м/с4 %
    12:00Небольшая облачность, возможен дождь с грозой+26°C53 %747 мм1.2 м/с13 %
    15:00Ясно и безоблачно+28°C49 %747 мм0.6 м/с15 %
    18:00Небольшая облачность+27°C49 %747 мм1.7 м/с29 %
    21:00Ясно и безоблачно+23°C69 %748 мм1.7 м/с13 %
  • 23июля
    Вторник
    +17°
    +28°
    Практически безоблачно
    ВремяПогодаТемператураВлажностьДавлениеВетер, м/сВероятность осадков
    00:00Ясно и безоблачно+19°C76 %748 мм2.0 м/с2 %
    03:00Ясно и безоблачно+17°C87 %748 мм1.6 м/с3 %
    06:00Ясно и безоблачно+15°C91 %748 мм1.9 м/с5 %
    09:00Ясно и безоблачно+22°C66 %749 мм2.1 м/с2 %
    12:00Практически безоблачно+26°C51 %749 мм2.4 м/с18 %
    15:00Практически безоблачно+27°C47 %749 мм2.8 м/с28 %
    18:00Практически безоблачно+26°C47 %748 мм2.8 м/с31 %
    21:00Небольшая облачность+24°C64 %748 мм1.6 м/с17 %
Мы используем cookies
Соглашаюсь